Airfield :
LOGIN :

Register | Disclaimer

   EN    FR    IT 

 










Legend :    VFR   Marginal VFR   IFR   Intensive IFR   Very Intensive IFR
Visi :
Ceiling :
>= 8 km
>= 3000ft
5 to 8 km
1000 to 3000 ft
1500m to 5 km
500 to 1000 ft
800 to 1500m
200 to 500 ft
< 800m
< 200 ft
Symbols :   Thunderstorms  Fog  Heavy snow  Heavy precipitations  Wind > 20 kt
SIGMETs :     Misc.  Thunderstorms  Icing  Turbulence  Mountain Waves  Volcanic Ashes






- Airport Elevation : 390 ft
- IATA code : NQY


EGHQ - Newquay

CURRENT METAR :
  • 071520Z 26014KT 9999 SCT008 SCT040 15/13 Q1019 RERA

EXPIRED METARs :
  • 071450Z 26014KT 9999 BKN008 14/13 Q1019
  • 071420Z 25014KT 9999 BKN009 14/13 Q1019
  • 071350Z 25020G30KT 7000 -RADZ BKN004 14/13 Q1019
  • 071320Z 24017KT 9999 BKN018 16/13 Q1019
  • 071250Z 24020G30KT 9999 SCT015 16/13 Q1019

TAF AMD TAF EGHQ
Valid from the 07 at 15:00 until the 08 at 00:00 UTC


071501Z 0715/0724 24016KT 9999 SCT020
TEMPO 0715/0718 26020G30KT
TEMPO 0715/0717 7000 RA SHRA BKN008
PROB30
TEMPO 0715/0716 3000 +RA +SHRA
BECMG 0717/0720 30012KT
PROB30
TEMPO 0718/0723 25015G25KT



MET'MAP, your aeronautical weather chart ! - Copyright ORBIFLY December 2007 - Disclaimer

ORBIFLY MET'MAP TEAM :

Programming & Development : Alexandra Zaïnal
Original concept : Baudouin d'Aumeries
Technical & hardware support : Manuel Goepfert
Assistance : Marc-Olivier Méhu




SOURCES & CREDITS :

   NOAA